Main page
METAR-TAF:

METAR-TAF

Airports :

Gao International Airport

Gao, Mali

latitude: 16-16N, longitude: 000-03W, elevation: 265 m

METAR: missing

Time: 06:28 (06:28 UTC)

Forecast

The report was made 1 hour and 28 minutes ago, at 05:00 UTC
Forecast valid from 26 at 06 UTC to 27 at 06 UTC
Wind 10 kt from the Southwest
Visibility: 6000 m
Few clouds at a height of 3000 ft
Probability 40% :
Temporary
from 26 at 14 UTC to 26 at 20 UTC
Wind 20 kt from variable directions with gusts up to 40 kt
Visibility: 2000 m
Scattered clouds at a height of 3000 ft
Few clouds at a height of 4000 ft, Cumulonimbus.
thunderstorm, rain, Blowing dust

TAF: GAGO 260500Z 2606/2706 22010KT 6000 FEW030 PROB40 TEMPO 2614/2620 VRB20G40KT 2000 TSRA BLDU SCT030 FEW040CB

Weather observations and forecasts of more than 4000 airports (METAR and TAF reports).

The available stations are represented by yellow and red dots on the map.

Hover mouse over dot to see the name of the station.

Then click to see weather observations and forecasts.

To change the map : click on the green buttons with a black cross to zoom in, on the green button with a dash to zoom out, or on the green arrows for adjacent maps.


METAR-TAF: